Time;durP1;ratioP1;P1;durP2;ratioP2;P2;SDS_P1;SDS_P2;PMS_P1;PMS_P2;Temp;Humidity;BMP_temperature;BMP_pressure;BME280_temperature;BME280_humidity;BME280_pressure;Samples;Min_cycle;Max_cycle;Signal;HPM_P1;HPM_P2
2022/08/09 00:00:18;;;;;;;13.52;6.82;;;12.20;99.90;;;;;;5032436;28;20038;-79
2022/08/09 00:02:43;;;;;;;12.95;7.13;;;12.20;99.90;;;;;;5031641;28;20113;-79
2022/08/09 00:05:09;;;;;;;11.50;6.97;;;12.10;99.90;;;;;;5033554;28;20026;-79
2022/08/09 00:07:35;;;;;;;12.10;6.90;;;12.10;99.90;;;;;;5030457;28;20045;-79
2022/08/09 00:10:00;;;;;;;12.13;7.22;;;12.10;99.90;;;;;;5030141;28;20033;-79
2022/08/09 00:12:26;;;;;;;13.40;8.02;;;12.20;99.90;;;;;;5031050;28;20029;-79
2022/08/09 00:14:52;;;;;;;13.70;7.13;;;12.20;99.90;;;;;;5033335;28;20493;-78
2022/08/09 00:17:17;;;;;;;12.52;7.47;;;12.30;99.90;;;;;;5034265;28;20080;-79
2022/08/09 00:19:43;;;;;;;14.02;7.75;;;12.40;99.90;;;;;;5034571;28;20033;-78
2022/08/09 00:22:08;;;;;;;15.13;8.10;;;12.40;99.90;;;;;;5035179;28;20030;-78
2022/08/09 00:24:34;;;;;;;14.65;7.90;;;12.50;99.90;;;;;;5035464;28;20041;-79
2022/08/09 00:27:00;;;;;;;13.73;7.30;;;12.50;99.90;;;;;;5035868;28;20030;-78
2022/08/09 00:29:27;;;;;;;11.80;6.43;;;12.40;99.90;;;;;;5030107;28;20389;-78
2022/08/09 00:31:53;;;;;;;12.75;7.15;;;12.20;99.90;;;;;;5028991;28;20033;-78
2022/08/09 00:34:19;;;;;;;11.07;6.78;;;12.20;99.90;;;;;;5030050;28;20034;-78
2022/08/09 00:36:44;;;;;;;11.88;6.85;;;12.20;99.90;;;;;;5029509;28;20061;-78
2022/08/09 00:39:10;;;;;;;8.70;5.40;;;12.10;99.90;;;;;;5032410;28;20084;-79
2022/08/09 00:41:36;;;;;;;9.02;5.32;;;12.10;99.90;;;;;;5030366;28;20063;-78
2022/08/09 00:44:02;;;;;;;8.23;5.35;;;12.00;99.90;;;;;;5032688;28;20018;-78
2022/08/09 00:46:28;;;;;;;10.05;5.60;;;12.00;99.90;;;;;;5033888;28;20028;-78
2022/08/09 00:48:53;;;;;;;10.02;5.45;;;12.00;99.90;;;;;;5034707;28;20041;-78
2022/08/09 00:51:19;;;;;;;9.48;5.50;;;12.00;99.90;;;;;;5030625;28;20026;-79
2022/08/09 00:53:46;;;;;;;7.20;4.75;;;12.00;99.90;;;;;;5029750;28;20093;-79
2022/08/09 00:56:12;;;;;;;9.25;4.35;;;12.00;99.90;;;;;;5034192;28;20113;-78
2022/08/09 00:58:38;;;;;;;7.97;4.68;;;11.90;99.90;;;;;;5030932;28;20026;-78
2022/08/09 01:01:33;;;;;;;7.05;4.20;;;11.80;99.90;;;;;;5029412;28;20056;-78
2022/08/09 01:04:19;;;;;;;8.50;4.65;;;11.80;99.90;;;;;;5030716;28;20060;-78
2022/08/09 01:07:02;;;;;;;6.45;4.47;;;11.80;99.90;;;;;;5033904;28;20022;-78
2022/08/09 01:09:41;;;;;;;6.95;4.80;;;11.80;99.90;;;;;;5034801;28;20037;-78
2022/08/09 01:12:31;;;;;;;8.68;3.97;;;11.70;99.90;;;;;;5034675;28;20006;-79
2022/08/09 01:15:24;;;;;;;4.17;2.90;;;11.70;99.90;;;;;;5035308;28;20022;-78
2022/08/09 01:18:06;;;;;;;5.53;3.28;;;11.80;99.90;;;;;;5035230;28;20048;-78
2022/08/09 01:20:57;;;;;;;5.72;3.15;;;11.70;1.00;;;;;;5035689;28;20050;-79
2022/08/09 01:23:59;;;;;;;8.07;3.92;;;11.70;1.00;;;;;;5031801;28;20027;-78
2022/08/09 01:26:53;;;;;;;8.27;4.60;;;11.60;1.00;;;;;;5036201;28;20050;-78
2022/08/09 01:29:26;;;;;;;7.38;4.15;;;11.60;1.00;;;;;;5032819;28;20042;-77
2022/08/09 01:31:57;;;;;;;5.78;3.63;;;11.50;1.00;;;;;;5031539;28;20053;-78
2022/08/09 01:34:24;;;;;;;;;;;11.50;1.00;;;;;;5029467;28;20050;-78
2022/08/09 01:36:51;;;;;;;7.05;4.03;;;11.60;1.00;;;;;;5033250;28;19905;-78
2022/08/09 01:39:20;;;;;;;9.02;4.90;;;11.60;1.00;;;;;;5032084;28;20080;-79
2022/08/09 01:41:48;;;;;;;8.30;4.53;;;11.50;1.00;;;;;;5031442;28;20050;-78
2022/08/09 01:44:16;;;;;;;7.50;4.45;;;11.50;1.00;;;;;;5032208;28;20106;-78
2022/08/09 01:46:44;;;;;;;8.63;4.80;;;11.60;1.00;;;;;;5032670;28;20018;-78
2022/08/09 01:49:15;;;;;;;9.15;4.78;;;11.60;1.00;;;;;;5031993;28;20060;-78
2022/08/09 01:51:47;;;;;;;9.88;5.13;;;11.70;1.00;;;;;;5027386;28;20022;-78
2022/08/09 01:54:13;;;;;;;7.57;4.80;;;11.60;1.00;;;;;;5026288;28;20080;-78
2022/08/09 01:56:42;;;;;;;7.22;4.53;;;11.70;1.00;;;;;;5029224;28;20030;-78
2022/08/09 01:59:14;;;;;;;9.57;4.32;;;11.70;1.00;;;;;;5027994;28;20107;-78
2022/08/09 02:01:43;;;;;;;9.50;4.82;;;11.80;1.00;;;;;;5027725;28;20046;-78
2022/08/09 02:04:11;;;;;;;11.80;5.13;;;12.10;1.00;;;;;;5027571;28;20085;-78
2022/08/09 02:09:25;;;;;;;7.63;4.22;;;11.80;1.00;;;;;;5029510;28;20114;-78
2022/08/09 02:11:52;;;;;;;7.07;4.10;;;11.90;1.00;;;;;;5029795;28;20434;-79
2022/08/09 02:14:20;;;;;;;6.57;4.20;;;11.90;1.00;;;;;;5029616;28;20029;-78
2022/08/09 02:16:48;;;;;;;6.72;4.15;;;11.90;1.00;;;;;;5031796;28;20080;-78
2022/08/09 02:19:14;;;;;;;6.60;3.75;;;11.80;1.00;;;;;;5033695;28;20022;-79
2022/08/09 02:21:46;;;;;;;9.65;3.58;;;11.70;1.00;;;;;;5033135;28;20018;-79
2022/08/09 02:24:16;;;;;;;4.65;2.55;;;11.60;1.00;;;;;;5035614;28;20055;-79
2022/08/09 02:26:44;;;;;;;6.25;2.42;;;11.60;1.00;;;;;;5033913;28;20032;-78
2022/08/09 02:29:19;;;;;;;31.48;3.55;;;11.70;1.00;;;;;;5033813;28;20065;-79
2022/08/09 02:31:47;;;;;;;10.35;3.47;;;11.80;1.00;;;;;;5030441;28;20048;-79
2022/08/09 02:34:33;;;;;;;12.07;4.05;;;12.00;24.30;;;;;;5027122;28;20053;-79
2022/08/09 02:37:02;;;;;;;6.13;2.97;;;12.10;53.40;;;;;;5029505;28;20036;-79
2022/08/09 02:39:40;;;;;;;7.10;2.93;;;12.00;77.10;;;;;;5032948;28;20026;-79
2022/08/09 02:42:11;;;;;;;12.30;2.90;;;12.10;99.90;;;;;;5031729;28;20072;-79
2022/08/09 02:44:41;;;;;;;47.00;3.70;;;12.00;99.90;;;;;;5031747;28;20076;-79
2022/08/09 02:47:10;;;;;;;61.15;3.50;;;12.10;99.90;;;;;;5033647;28;20022;-79
2022/08/09 02:49:46;;;;;;;5.50;2.13;;;12.10;99.90;;;;;;5035923;28;20034;-79
2022/08/09 02:52:15;;;;;;;3.35;2.40;;;11.90;99.90;;;;;;5031643;28;20117;-79
2022/08/09 02:54:42;;;;;;;6.70;2.72;;;11.80;99.90;;;;;;5028685;28;20041;-79
2022/08/09 02:57:10;;;;;;;7.40;3.10;;;11.80;99.90;;;;;;5031138;28;20076;-79
2022/08/09 02:59:38;;;;;;;7.20;3.00;;;11.70;99.90;;;;;;5035123;28;20026;-79
2022/08/09 03:02:06;;;;;;;32.50;3.45;;;11.70;99.90;;;;;;5034099;28;20044;-79
2022/08/09 03:04:33;;;;;;;19.38;3.45;;;11.90;99.90;;;;;;5035026;28;20025;-80
2022/08/09 03:07:02;;;;;;;59.50;4.13;;;11.90;99.90;;;;;;5033521;28;20010;-79
2022/08/09 03:09:28;;;;;;;44.35;3.85;;;12.00;99.90;;;;;;5034998;28;20053;-79
2022/08/09 03:11:54;;;;;;;25.42;2.90;;;12.10;99.90;;;;;;5033916;28;20385;-79
2022/08/09 03:14:21;;;;;;;46.60;4.32;;;12.00;99.90;;;;;;5036168;28;20026;-79
2022/08/09 03:16:47;;;;;;;39.60;3.42;;;11.90;99.90;;;;;;5037431;28;20025;-79
2022/08/09 03:19:15;;;;;;;4.63;2.70;;;12.00;99.90;;;;;;5037298;28;20060;-79
2022/08/09 03:21:43;;;;;;;6.47;2.88;;;12.00;99.90;;;;;;5037955;28;20018;-79
2022/08/09 03:24:08;;;;;;;4.15;2.55;;;11.80;99.90;;;;;;5037193;28;20018;-79
2022/08/09 03:26:36;;;;;;;50.00;3.78;;;11.80;99.90;;;;;;5040435;28;20036;-79
2022/08/09 03:29:01;;;;;;;54.97;4.25;;;12.00;99.90;;;;;;5037938;28;20034;-79
2022/08/09 03:31:28;;;;;;;67.55;3.53;;;12.10;99.90;;;;;;5033610;28;20033;-79
2022/08/09 03:33:56;;;;;;;54.83;3.67;;;12.10;99.90;;;;;;5032844;28;20054;-80
2022/08/09 03:36:23;;;;;;;48.63;3.97;;;12.10;99.90;;;;;;5034183;28;20033;-79
2022/08/09 03:38:48;;;;;;;5.18;3.10;;;12.00;99.90;;;;;;5034316;28;20045;-79
2022/08/09 03:41:14;;;;;;;5.40;2.75;;;11.80;99.90;;;;;;5034968;28;20029;-79
2022/08/09 03:43:40;;;;;;;14.60;2.83;;;11.80;99.90;;;;;;5037730;28;20022;-79
2022/08/09 03:46:06;;;;;;;41.28;3.65;;;11.80;99.90;;;;;;5036634;28;20030;-79
2022/08/09 03:48:34;;;;;;;6.65;3.50;;;11.80;99.90;;;;;;5036302;28;20069;-80
2022/08/09 03:51:01;;;;;;;6.72;3.30;;;11.80;99.90;;;;;;5035797;28;20505;-79
2022/08/09 03:53:27;;;;;;;8.10;3.90;;;11.80;99.90;;;;;;5033761;28;20581;-80
2022/08/09 03:55:53;;;;;;;6.22;2.63;;;11.70;99.90;;;;;;5036682;28;20026;-80
2022/08/09 03:58:19;;;;;;;3.95;2.50;;;11.70;99.90;;;;;;5034250;28;20026;-80
2022/08/09 04:00:45;;;;;;;3.67;2.30;;;11.70;99.90;;;;;;5036427;28;20042;-79
2022/08/09 04:03:11;;;;;;;2.95;1.95;;;11.60;99.90;;;;;;5034197;28;20022;-79
2022/08/09 04:05:37;;;;;;;4.47;2.28;;;11.60;99.90;;;;;;5033179;28;20029;-79
2022/08/09 04:08:03;;;;;;;4.20;2.30;;;11.60;99.90;;;;;;5032374;28;20030;-79
2022/08/09 04:10:28;;;;;;;3.75;2.45;;;11.60;99.90;;;;;;5033185;28;20041;-79
2022/08/09 04:12:54;;;;;;;5.95;2.28;;;11.50;99.90;;;;;;5035111;28;20029;-79
2022/08/09 04:15:22;;;;;;;4.30;2.40;;;11.70;99.90;;;;;;5037992;28;20056;-80
2022/08/09 04:17:47;;;;;;;4.72;2.90;;;11.60;99.90;;;;;;5038159;28;20060;-79
2022/08/09 04:20:14;;;;;;;6.25;3.00;;;11.40;99.90;;;;;;5037374;28;20030;-79
2022/08/09 04:22:41;;;;;;;3.65;2.58;;;11.40;99.90;;;;;;5036154;28;20030;-80
2022/08/09 04:25:07;;;;;;;5.25;3.33;;;11.40;99.90;;;;;;5039384;28;20025;-79
2022/08/09 04:27:34;;;;;;;6.35;3.00;;;11.40;99.90;;;;;;5040254;28;20032;-79
2022/08/09 04:30:00;;;;;;;5.38;2.85;;;11.40;99.90;;;;;;5039000;28;20026;-80
2022/08/09 04:32:27;;;;;;;5.28;2.88;;;11.40;99.90;;;;;;5037801;28;20029;-79
2022/08/09 04:34:53;;;;;;;7.32;3.75;;;11.40;99.90;;;;;;5037327;28;20033;-79
2022/08/09 04:37:19;;;;;;;4.60;2.80;;;11.60;99.90;;;;;;5035123;28;20033;-80
2022/08/09 04:39:44;;;;;;;4.65;2.88;;;11.50;99.90;;;;;;5036508;28;20029;-78
2022/08/09 04:42:10;;;;;;;7.78;3.95;;;11.50;99.90;;;;;;5038060;28;20018;-79
2022/08/09 04:44:35;;;;;;;7.82;4.10;;;11.60;99.90;;;;;;5038814;28;20456;-79
2022/08/09 04:47:01;;;;;;;9.48;4.97;;;11.60;99.90;;;;;;5038238;28;20029;-78
2022/08/09 04:49:36;;;;;;;9.77;3.90;;;11.80;99.90;;;;;;5038424;28;20018;-79
2022/08/09 04:52:04;;;;;;;5.85;3.33;;;11.80;99.90;;;;;;5036137;28;20026;-79
2022/08/09 04:54:31;;;;;;;7.88;3.70;;;11.80;99.90;;;;;;5037173;28;20026;-79
2022/08/09 04:56:57;;;;;;;6.32;4.15;;;11.90;99.90;;;;;;5038347;28;20022;-79
2022/08/09 04:59:22;;;;;;;7.13;4.25;;;11.90;99.90;;;;;;5039483;28;20010;-79
2022/08/09 05:01:48;;;;;;;10.48;4.43;;;12.00;99.90;;;;;;5038662;28;20050;-78
2022/08/09 05:04:13;;;;;;;10.40;4.43;;;12.40;99.90;;;;;;5038721;28;20018;-79
2022/08/09 05:06:39;;;;;;;6.97;3.83;;;12.60;99.90;;;;;;5036992;28;20022;-78
2022/08/09 05:09:04;;;;;;;9.18;4.40;;;12.50;99.90;;;;;;5034676;28;20042;-78
2022/08/09 05:11:30;;;;;;;7.88;3.80;;;12.50;99.90;;;;;;5036468;28;20022;-79
2022/08/09 05:13:56;;;;;;;8.02;3.90;;;12.70;99.90;;;;;;5035768;28;20034;-79
2022/08/09 05:16:21;;;;;;;9.68;4.40;;;13.00;99.90;;;;;;5038483;28;20026;-79
2022/08/09 05:18:47;;;;;;;9.10;4.28;;;13.00;99.90;;;;;;5038936;28;20449;-78
2022/08/09 05:21:12;;;;;;;7.30;3.78;;;13.00;99.90;;;;;;5038508;28;20034;-79
2022/08/09 05:23:38;;;;;;;9.45;4.53;;;13.20;99.90;;;;;;5039310;28;20022;-79
2022/08/09 05:26:04;;;;;;;13.52;6.47;;;16.10;99.90;;;;;;5040028;28;20041;-79
2022/08/09 05:28:29;;;;;;;11.90;5.68;;;18.90;99.90;;;;;;5039695;28;20081;-79
2022/08/09 05:30:55;;;;;;;9.20;5.22;;;20.80;99.90;;;;;;5037323;28;20025;-79
2022/08/09 05:33:20;;;;;;;9.00;5.57;;;22.40;1.00;;;;;;5036258;28;20061;-79
2022/08/09 05:35:46;;;;;;;7.93;5.47;;;23.90;99.90;;;;;;5036518;28;20049;-79
2022/08/09 05:38:11;;;;;;;8.75;4.60;;;25.10;99.90;;;;;;5037489;28;20021;-79
2022/08/09 05:40:37;;;;;;;6.28;4.60;;;26.40;99.90;;;;;;5037256;28;20036;-79
2022/08/09 05:43:02;;;;;;;6.35;4.30;;;27.00;99.90;;;;;;5037972;28;20037;-79
2022/08/09 05:45:28;;;;;;;5.07;3.90;;;28.20;99.90;;;;;;5038718;28;20014;-80
2022/08/09 05:47:55;;;;;;;3.28;2.97;;;29.20;99.90;;;;;;5038671;28;20029;-80
2022/08/09 05:50:27;;;;;;;3.97;2.75;;;30.60;99.90;;;;;;5036654;28;20037;-80
2022/08/09 05:52:53;;;;;;;3.70;2.90;;;31.60;99.90;;;;;;5035095;28;20048;-80
2022/08/09 05:55:19;;;;;;;5.03;3.15;;;32.10;99.90;;;;;;5034877;28;20026;-79
2022/08/09 05:57:45;;;;;;;8.43;2.95;;;32.40;99.90;;;;;;5036214;28;20025;-80
2022/08/09 06:00:12;;;;;;;4.90;3.03;;;33.60;99.90;;;;;;5036141;28;20086;-80
2022/08/09 06:02:38;;;;;;;3.35;2.92;;;33.30;99.90;;;;;;5038644;28;20026;-80
2022/08/09 06:05:05;;;;;;;6.70;3.10;;;34.00;99.90;;;;;;5038465;28;20018;-80
2022/08/09 06:07:30;;;;;;;3.92;2.83;;;35.10;99.90;;;;;;5036610;28;20025;-80
2022/08/09 06:09:56;;;;;;;4.97;3.08;;;35.30;99.90;;;;;;5033607;28;20037;-80
2022/08/09 06:12:22;;;;;;;4.65;3.13;;;35.10;99.90;;;;;;5035942;28;20028;-81
2022/08/09 06:14:48;;;;;;;3.30;2.72;;;33.50;99.90;;;;;;5036823;28;20010;-81
2022/08/09 06:17:13;;;;;;;3.35;2.67;;;32.90;99.90;;;;;;5037758;28;20082;-80
2022/08/09 06:19:39;;;;;;;5.10;3.10;;;35.60;99.90;;;;;;5037251;28;20033;-81
2022/08/09 06:22:05;;;;;;;3.90;2.70;;;34.20;99.90;;;;;;5036624;28;20022;-81
2022/08/09 06:24:31;;;;;;;5.55;3.22;;;33.70;99.90;;;;;;5037110;28;20030;-81
2022/08/09 06:26:57;;;;;;;4.43;2.40;;;35.50;99.90;;;;;;5038048;28;20034;-80
2022/08/09 06:29:23;;;;;;;4.60;2.70;;;35.60;99.90;;;;;;5036151;28;20034;-81
2022/08/09 06:31:48;;;;;;;4.47;2.85;;;34.70;99.90;;;;;;5033052;28;20028;-81
2022/08/09 06:34:14;;;;;;;3.00;2.28;;;35.70;99.90;;;;;;5029618;28;20413;-81
2022/08/09 06:36:40;;;;;;;3.50;2.45;;;36.80;99.90;;;;;;5032158;28;20070;-81
2022/08/09 06:39:09;;;;;;;2.80;2.42;;;36.90;99.90;;;;;;5031277;28;20091;-82
2022/08/09 06:41:36;;;;;;;4.22;3.15;;;36.30;99.90;;;;;;5031380;28;20025;-81
2022/08/09 06:44:02;;;;;;;2.85;2.33;;;37.10;99.90;;;;;;5032800;28;20085;-81
2022/08/09 06:46:27;;;;;;;3.65;2.55;;;37.50;99.90;;;;;;5034063;28;20045;-81
2022/08/09 06:48:53;;;;;;;4.25;2.67;;;38.20;99.90;;;;;;5034517;28;20030;-82
2022/08/09 06:51:18;;;;;;;3.15;2.53;;;38.10;99.90;;;;;;5032901;28;20030;-82
2022/08/09 06:53:44;;;;;;;4.55;2.40;;;38.20;99.50;;;;;;5033176;28;20034;-82
2022/08/09 06:56:10;;;;;;;3.17;2.88;;;40.60;98.50;;;;;;5036330;28;20013;-82
2022/08/09 06:58:36;;;;;;;3.15;2.38;;;40.90;94.40;;;;;;5033103;28;20034;-82
2022/08/09 07:01:01;;;;;;;3.38;2.45;;;39.90;91.00;;;;;;5034858;28;20018;-82
2022/08/09 07:03:27;;;;;;;4.07;2.25;;;39.50;89.20;;;;;;5034637;28;20018;-82
2022/08/09 07:05:54;;;;;;;4.60;2.60;;;39.10;87.70;;;;;;5034143;28;20029;-82
2022/08/09 07:08:20;;;;;;;3.67;2.20;;;40.60;86.60;;;;;;5031849;28;20029;-82
2022/08/09 07:10:45;;;;;;;2.95;2.45;;;41.50;82.50;;;;;;5032424;28;20030;-82
2022/08/09 07:13:11;;;;;;;2.88;2.25;;;41.60;78.00;;;;;;5035153;28;20034;-82
2022/08/09 07:15:36;;;;;;;2.53;2.00;;;38.20;68.70;;;;;;5036301;28;20033;-82
2022/08/09 07:18:02;;;;;;;3.90;2.00;;;39.80;71.80;;;;;;5037135;28;20106;-82
2022/08/09 07:20:27;;;;;;;1.50;1.40;;;39.70;69.20;;;;;;5036422;28;20022;-82
2022/08/09 07:22:53;;;;;;;3.63;1.83;;;39.20;67.10;;;;;;5035261;28;20030;-82
2022/08/09 07:25:19;;;;;;;4.15;1.90;;;39.90;66.30;;;;;;5038096;28;20018;-82
2022/08/09 07:27:45;;;;;;;4.22;1.98;;;39.20;65.30;;;;;;5038293;28;20033;-82
2022/08/09 07:30:12;;;;;;;3.47;2.13;;;39.80;65.70;;;;;;5035883;28;20040;-82
2022/08/09 07:32:39;;;;;;;2.58;1.80;;;40.00;64.10;;;;;;5033287;28;20080;-83
2022/08/09 07:35:07;;;;;;;1.67;1.33;;;39.60;64.00;;;;;;5032942;28;20110;-82
2022/08/09 07:37:33;;;;;;;3.30;1.95;;;40.70;64.50;;;;;;5034631;28;20034;-82
2022/08/09 07:39:58;;;;;;;2.63;1.77;;;39.60;60.00;;;;;;5036063;28;20030;-82
2022/08/09 07:42:24;;;;;;;2.85;2.00;;;40.80;60.80;;;;;;5037233;28;20048;-83
2022/08/09 07:44:50;;;;;;;3.70;1.83;;;41.20;59.30;;;;;;5036331;28;20076;-82
2022/08/09 07:47:16;;;;;;;2.63;2.20;;;41.20;56.50;;;;;;5039666;28;20064;-83
2022/08/09 07:49:42;;;;;;;3.25;1.85;;;38.10;53.20;;;;;;5039638;28;20032;-82
2022/08/09 07:52:08;;;;;;;2.90;2.05;;;40.40;54.80;;;;;;5039022;28;20026;-83
2022/08/09 07:54:33;;;;;;;4.05;1.67;;;41.80;54.80;;;;;;5038979;28;20030;-82
2022/08/09 07:56:59;;;;;;;2.83;1.80;;;40.30;49.50;;;;;;5036875;28;20026;-82
2022/08/09 07:59:25;;;;;;;3.38;2.05;;;39.80;49.70;;;;;;5037140;28;20048;-82
2022/08/09 08:01:50;;;;;;;2.45;1.60;;;41.00;49.60;;;;;;5037099;28;20561;-82
2022/08/09 08:04:16;;;;;;;2.28;1.42;;;41.10;50.20;;;;;;5039060;28;20033;-82
2022/08/09 08:06:41;;;;;;;2.55;1.17;;;40.70;47.10;;;;;;5036748;28;20018;-82
2022/08/09 08:09:07;;;;;;;3.20;1.30;;;40.10;45.10;;;;;;5036403;28;20066;-82
2022/08/09 08:11:33;;;;;;;2.58;1.40;;;40.70;44.50;;;;;;5036975;28;20037;-82
2022/08/09 08:13:58;;;;;;;2.10;1.45;;;39.70;41.20;;;;;;5038963;28;20018;-82
2022/08/09 08:16:24;;;;;;;3.22;1.77;;;34.50;36.50;;;;;;5039139;28;20030;-82
2022/08/09 08:18:50;;;;;;;1.90;1.30;;;31.80;38.80;;;;;;5038430;28;20034;-82
2022/08/09 08:21:15;;;;;;;3.70;1.27;;;30.40;41.20;;;;;;5037838;28;20018;-82
2022/08/09 08:23:41;;;;;;;2.00;1.25;;;29.50;46.40;;;;;;5038829;28;20020;-82
2022/08/09 08:26:06;;;;;;;1.58;1.20;;;28.50;51.80;;;;;;5040346;28;20006;-83
2022/08/09 08:28:32;;;;;;;2.75;1.23;;;29.50;61.10;;;;;;5039792;28;20042;-82
2022/08/09 08:30:58;;;;;;;3.80;1.48;;;35.40;64.20;;;;;;5038174;28;20386;-82
2022/08/09 08:33:24;;;;;;;11.48;1.35;;;38.80;63.00;;;;;;5034713;28;20054;-81
2022/08/09 08:35:50;;;;;;;2.30;0.88;;;38.10;55.80;;;;;;5035354;28;20109;-83
2022/08/09 08:38:16;;;;;;;1.60;0.80;;;33.40;48.10;;;;;;5034196;28;20033;-82
2022/08/09 08:40:41;;;;;;;1.20;0.65;;;34.40;58.70;;;;;;5033385;28;20018;-82
2022/08/09 08:43:07;;;;;;;1.52;0.80;;;36.90;57.10;;;;;;5034736;28;20028;-82
2022/08/09 08:45:37;;;;;;;1.67;0.73;;;34.80;53.40;;;;;;5035233;28;20053;-82
2022/08/09 08:48:04;;;;;;;2.03;0.80;;;34.70;52.10;;;;;;5037299;28;20036;-81
2022/08/09 08:50:30;;;;;;;0.95;0.60;;;36.40;55.90;;;;;;5037307;28;20052;-82
2022/08/09 08:52:56;;;;;;;1.65;1.00;;;32.40;51.00;;;;;;5036134;28;20026;-82
2022/08/09 08:55:22;;;;;;;1.58;1.00;;;31.20;54.10;;;;;;5037146;28;20045;-81
2022/08/09 08:57:48;;;;;;;2.35;1.10;;;29.10;56.30;;;;;;5036205;28;20010;-81
2022/08/09 09:00:14;;;;;;;1.00;0.90;;;28.30;61.60;;;;;;5037076;28;20018;-81
2022/08/09 09:02:40;;;;;;;1.80;0.90;;;27.30;69.70;;;;;;5038447;28;20010;-81
2022/08/09 09:05:09;;;;;;;1.33;0.80;;;27.50;77.30;;;;;;5036358;28;20093;-82
2022/08/09 09:07:35;;;;;;;0.77;0.70;;;33.60;85.90;;;;;;5035386;28;20026;-82
2022/08/09 09:10:05;;;;;;;1.00;0.80;;;33.40;74.20;;;;;;5034957;28;20034;-81
2022/08/09 09:12:32;;;;;;;0.93;0.63;;;34.90;73.50;;;;;;5036316;28;20030;-81
2022/08/09 09:14:59;;;;;;;1.00;0.77;;;38.20;72.20;;;;;;5035310;28;20044;-81
2022/08/09 09:17:25;;;;;;;1.45;0.80;;;35.50;65.60;;;;;;5036725;28;20021;-82
2022/08/09 09:19:52;;;;;;;1.48;0.77;;;38.10;69.20;;;;;;5039011;28;20025;-81
2022/08/09 09:22:18;;;;;;;0.95;0.63;;;38.20;64.50;;;;;;5038936;28;20022;-81
2022/08/09 09:24:50;;;;;;;1.13;0.80;;;37.60;57.90;;;;;;5037293;28;20017;-81
2022/08/09 09:27:19;;;;;;;1.45;0.90;;;32.10;51.50;;;;;;5039034;28;20022;-81
2022/08/09 09:29:45;;;;;;;1.50;0.93;;;30.70;56.20;;;;;;5037354;28;20042;-81
2022/08/09 09:32:11;;;;;;;0.90;0.80;;;30.80;59.20;;;;;;5033102;28;20026;-81
2022/08/09 09:34:37;;;;;;;1.30;0.80;;;33.50;65.70;;;;;;5032292;28;20046;-81
2022/08/09 09:37:05;;;;;;;1.55;0.75;;;37.50;67.50;;;;;;5032388;28;20030;-81
2022/08/09 09:39:32;;;;;;;1.48;0.90;;;39.50;65.50;;;;;;5030576;28;20029;-81
2022/08/09 09:41:59;;;;;;;1.85;0.80;;;39.40;59.80;;;;;;5030579;28;20470;-81
2022/08/09 09:44:29;;;;;;;2.50;1.27;;;40.00;57.60;;;;;;5033275;28;20022;-81
2022/08/09 09:47:10;;;;;;;1.33;0.52;;;39.10;53.30;;;;;;5032536;28;20036;-81
2022/08/09 09:49:37;;;;;;;0.70;0.60;;;39.90;51.90;;;;;;5032286;28;20025;-81
2022/08/09 09:52:07;;;;;;;1.17;0.70;;;39.60;49.40;;;;;;5032121;28;20025;-82
2022/08/09 09:54:39;;;;;;;0.68;0.60;;;36.30;42.90;;;;;;5032479;28;20005;-81
2022/08/09 09:57:18;;;;;;;1.45;0.90;;;33.10;39.30;;;;;;5033836;28;20026;-81
2022/08/09 09:59:45;;;;;;;2.60;0.70;;;35.90;50.40;;;;;;5031009;28;20029;-81
2022/08/09 10:02:11;;;;;;;2.08;0.82;;;33.50;42.80;;;;;;5032374;28;20018;-81
2022/08/09 10:04:37;;;;;;;1.67;0.80;;;30.30;41.30;;;;;;5032504;28;20029;-81
2022/08/09 10:07:03;;;;;;;1.25;0.75;;;28.90;45.10;;;;;;5030076;28;20026;-81
2022/08/09 10:09:47;;;;;;;3.05;1.10;;;28.60;48.90;;;;;;5030582;28;20030;-81
2022/08/09 10:12:27;;;;;;;0.90;0.77;;;32.20;58.20;;;;;;5031183;28;20025;-81
2022/08/09 10:15:03;;;;;;;2.00;0.80;;;31.60;55.60;;;;;;5030599;28;20044;-81
2022/08/09 10:17:33;;;;;;;1.45;0.70;;;32.00;55.30;;;;;;5031746;28;20028;-81
2022/08/09 10:20:00;;;;;;;1.40;0.75;;;32.10;58.50;;;;;;5031907;28;20025;-82
2022/08/09 10:22:34;;;;;;;0.60;0.60;;;35.60;62.60;;;;;;5032028;28;20032;-81
2022/08/09 10:25:03;;;;;;;1.27;0.68;;;37.10;60.50;;;;;;5034945;28;20022;-81
2022/08/09 10:27:30;;;;;;;1.25;0.75;;;38.40;58.60;;;;;;5035240;28;20033;-81
2022/08/09 10:29:56;;;;;;;1.80;0.82;;;37.70;53.10;;;;;;5033020;28;20126;-81
2022/08/09 10:32:23;;;;;;;1.23;0.80;;;33.10;45.20;;;;;;5027631;28;20525;-81
2022/08/09 10:34:49;;;;;;;1.58;0.65;;;29.80;46.60;;;;;;5027303;28;20136;-81
2022/08/09 10:37:17;;;;;;;2.05;0.82;;;28.70;51.80;;;;;;5029948;28;20022;-81
2022/08/09 10:39:42;;;;;;;0.80;0.80;;;28.50;56.70;;;;;;5026641;28;20029;-81
2022/08/09 10:42:08;;;;;;;2.85;0.77;;;31.10;64.80;;;;;;5028491;28;20036;-81
2022/08/09 10:44:35;;;;;;;1.58;0.80;;;35.60;68.20;;;;;;5031657;28;20033;-80
2022/08/09 10:47:29;;;;;;;0.80;0.80;;;36.40;63.30;;;;;;5030527;28;20030;-81
2022/08/09 10:50:15;;;;;;;1.35;0.95;;;34.10;56.90;;;;;;5028153;28;20022;-81
2022/08/09 10:53:18;;;;;;;1.90;1.10;;;30.50;54.30;;;;;;5027778;28;20049;-81
2022/08/09 10:55:43;;;;;;;2.50;1.23;;;28.10;58.00;;;;;;5032654;28;20425;-81
2022/08/09 10:58:31;;;;;;;1.13;0.90;;;28.00;65.20;;;;;;5034639;28;20030;-81
2022/08/09 11:00:57;;;;;;;1.27;0.98;;;27.30;74.40;;;;;;5034496;28;20034;-80
2022/08/09 11:03:24;;;;;;;1.13;0.80;;;27.60;79.20;;;;;;5034352;28;20040;-80
2022/08/09 11:06:15;;;;;;;1.20;0.80;;;28.10;86.70;;;;;;5032602;28;20053;-81
2022/08/09 11:08:42;;;;;;;1.00;0.88;;;27.80;90.20;;;;;;5029316;28;20064;-81
2022/08/09 11:11:08;;;;;;;2.28;0.98;;;28.20;92.40;;;;;;5029202;28;20030;-81
2022/08/09 11:13:34;;;;;;;0.73;0.70;;;27.90;94.00;;;;;;5032099;28;20170;-81
2022/08/09 11:16:32;;;;;;;1.17;0.82;;;27.20;96.70;;;;;;5031826;28;20037;-81
2022/08/09 11:18:58;;;;;;;1.85;1.00;;;27.10;99.90;;;;;;5031970;28;20036;-81
2022/08/09 11:21:49;;;;;;;1.63;1.00;;;27.10;99.90;;;;;;5036143;28;20049;-81
2022/08/09 11:24:16;;;;;;;1.77;1.00;;;27.60;99.90;;;;;;5036402;28;20010;-80
2022/08/09 11:26:43;;;;;;;1.23;0.85;;;27.40;99.90;;;;;;5036970;28;20010;-80
2022/08/09 11:29:47;;;;;;;0.90;0.90;;;27.60;99.90;;;;;;5037296;28;20094;-81
2022/08/09 11:32:42;;;;;;;1.92;0.90;;;27.00;99.90;;;;;;5033247;28;20030;-81
2022/08/09 11:35:16;;;;;;;2.38;0.93;;;26.60;99.90;;;;;;5033301;28;20056;-81
2022/08/09 11:37:43;;;;;;;2.10;1.10;;;26.50;99.90;;;;;;5034464;28;20026;-81
2022/08/09 11:40:15;;;;;;;1.02;0.80;;;26.90;99.90;;;;;;5031626;28;20030;-81
2022/08/09 11:42:50;;;;;;;2.67;1.02;;;27.00;99.90;;;;;;5032309;28;20068;-80
2022/08/09 11:45:22;;;;;;;2.05;0.93;;;27.20;99.90;;;;;;5034473;28;20041;-80
2022/08/09 11:47:53;;;;;;;1.98;1.08;;;26.90;99.90;;;;;;5035325;28;20033;-80
2022/08/09 11:50:20;;;;;;;0.93;0.90;;;26.90;99.90;;;;;;5033769;28;20030;-81
2022/08/09 11:52:57;;;;;;;1.90;0.90;;;27.00;99.90;;;;;;5034137;28;20018;-81
2022/08/09 11:55:34;;;;;;;0.93;0.93;;;27.10;99.90;;;;;;5036436;28;20022;-81
2022/08/09 11:58:01;;;;;;;1.40;0.80;;;27.20;99.90;;;;;;5035761;28;20076;-81
2022/08/09 12:00:29;;;;;;;0.80;0.80;;;27.20;99.90;;;;;;5033355;28;20029;-81
2022/08/09 12:02:57;;;;;;;1.75;0.93;;;27.50;99.90;;;;;;5034255;28;20032;-80
2022/08/09 12:05:33;;;;;;;1.33;0.80;;;27.40;99.90;;;;;;5035594;28;20026;-81
2022/08/09 12:07:59;;;;;;;1.67;1.02;;;27.40;99.90;;;;;;5034030;28;20041;-81
2022/08/09 12:10:25;;;;;;;2.38;0.90;;;26.80;99.90;;;;;;5035852;28;20042;-81
2022/08/09 12:12:51;;;;;;;1.08;0.75;;;26.50;99.90;;;;;;5035107;28;20081;-81
2022/08/09 12:15:26;;;;;;;1.88;1.02;;;27.90;99.90;;;;;;5035022;28;20036;-80
2022/08/09 12:17:53;;;;;;;1.48;0.75;;;27.90;99.90;;;;;;5034574;28;20026;-80
2022/08/09 12:20:25;;;;;;;1.55;0.90;;;28.40;99.90;;;;;;5034846;28;20126;-80
2022/08/09 12:22:58;;;;;;;2.22;0.70;;;27.60;99.90;;;;;;5035107;28;20077;-81
2022/08/09 12:25:25;;;;;;;0.93;0.88;;;27.20;99.90;;;;;;5030270;28;20105;-80
2022/08/09 12:28:16;;;;;;;0.70;0.70;;;27.10;99.90;;;;;;5040192;28;20014;-80
2022/08/09 12:30:42;;;;;;;1.23;0.75;;;26.90;99.90;;;;;;5040703;28;20038;-80
2022/08/09 12:33:09;;;;;;;1.02;0.80;;;27.10;99.90;;;;;;5040859;28;20041;-80
2022/08/09 12:35:35;;;;;;;0.95;0.60;;;26.70;99.90;;;;;;5041391;28;20014;-81
2022/08/09 12:38:29;;;;;;;1.67;0.77;;;27.60;99.90;;;;;;5041198;28;20036;-80
2022/08/09 12:40:57;;;;;;;1.83;1.13;;;27.40;99.90;;;;;;5039085;28;20032;-80
2022/08/09 12:43:27;;;;;;;1.35;0.80;;;26.40;99.90;;;;;;5041076;28;20036;-79
2022/08/09 12:45:55;;;;;;;2.35;0.55;;;26.60;99.90;;;;;;5041077;28;20021;-80
2022/08/09 12:48:22;;;;;;;1.58;0.60;;;26.30;99.90;;;;;;5040864;28;20020;-80
2022/08/09 12:50:49;;;;;;;0.68;0.57;;;25.90;99.90;;;;;;5040991;28;20010;-80
2022/08/09 12:53:29;;;;;;;1.10;0.80;;;25.80;99.90;;;;;;5040439;28;20010;-80
2022/08/09 12:56:17;;;;;;;0.93;0.60;;;26.40;99.90;;;;;;5040960;28;20014;-80